createdAt,value
2023-01-26T00:01:11.540Z,42.10
2023-01-26T00:03:41.084Z,45.73
2023-01-26T00:06:10.216Z,45.10
2023-01-26T00:08:38.474Z,45.20
2023-01-26T00:11:07.322Z,44.53
2023-01-26T00:13:35.822Z,44.77
2023-01-26T00:16:04.405Z,42.23
2023-01-26T00:18:32.689Z,42.47
2023-01-26T00:21:03.303Z,43.87
2023-01-26T00:23:32.522Z,46.90
2023-01-26T00:26:00.680Z,43.63
2023-01-26T00:28:29.455Z,42.47
2023-01-26T00:31:03.773Z,44.43
2023-01-26T00:33:32.097Z,48.50
2023-01-26T00:36:01.630Z,45.53
2023-01-26T00:38:29.850Z,45.87
2023-01-26T00:40:57.991Z,47.07
2023-01-26T00:43:26.254Z,45.30
2023-01-26T00:45:54.488Z,50.27
2023-01-26T00:48:24.657Z,49.07
2023-01-26T00:50:53.205Z,46.90
2023-01-26T00:53:22.754Z,47.80
2023-01-26T00:55:53.328Z,46.83
2023-01-26T00:58:21.486Z,46.43
2023-01-26T01:00:49.656Z,52.53
2023-01-26T01:03:17.865Z,52.83
2023-01-26T01:05:46.075Z,47.93
2023-01-26T01:08:14.251Z,47.50
2023-01-26T01:10:43.779Z,52.40
2023-01-26T01:13:12.021Z,47.43
2023-01-26T01:15:40.341Z,50.60
2023-01-26T01:18:08.535Z,54.03
2023-01-26T01:20:36.642Z,51.47
2023-01-26T01:23:04.819Z,49.07
2023-01-26T01:25:34.760Z,49.73
2023-01-26T01:28:04.257Z,49.47
2023-01-26T01:30:32.444Z,52.10
2023-01-26T01:33:00.624Z,52.03
2023-01-26T01:35:29.415Z,53.37
2023-01-26T01:37:57.626Z,51.50
2023-01-26T01:40:25.822Z,50.63
2023-01-26T01:42:54.039Z,52.33
2023-01-26T01:45:46.309Z,52.50
2023-01-26T01:48:22.283Z,52.57
2023-01-26T01:50:51.465Z,49.43
2023-01-26T01:53:24.559Z,55.03
2023-01-26T01:55:54.715Z,52.63
2023-01-26T01:58:23.463Z,49.37
2023-01-26T02:00:51.682Z,49.17
2023-01-26T02:03:21.437Z,51.33
2023-01-26T02:05:55.893Z,51.67
2023-01-26T02:08:27.093Z,51.50
2023-01-26T02:10:56.903Z,53.87
2023-01-26T02:13:25.433Z,50.37
2023-01-26T02:15:53.776Z,51.97
2023-01-26T02:18:23.332Z,52.10
2023-01-26T02:20:52.264Z,54.63
2023-01-26T02:23:27.667Z,55.93
2023-01-26T02:26:16.929Z,56.40
2023-01-26T02:28:47.636Z,53.23
2023-01-26T02:31:15.999Z,53.37
2023-01-26T02:33:44.922Z,55.93
2023-01-26T02:36:19.200Z,55.60
2023-01-26T02:38:50.751Z,51.87
2023-01-26T02:41:40.083Z,58.30
2023-01-26T02:44:10.163Z,53.73
2023-01-26T02:46:38.498Z,55.53
2023-01-26T02:49:24.592Z,53.03
2023-01-26T02:51:52.761Z,54.70
2023-01-26T02:54:38.775Z,57.33
2023-01-26T02:57:06.934Z,57.70
2023-01-26T02:59:36.448Z,59.20
2023-01-26T03:02:04.914Z,54.10
2023-01-26T03:04:33.136Z,49.30
2023-01-26T03:07:01.336Z,57.00
2023-01-26T03:09:29.496Z,57.63
2023-01-26T03:11:57.738Z,49.17
2023-01-26T03:14:25.969Z,48.33
2023-01-26T03:16:55.776Z,55.47
2023-01-26T03:19:41.502Z,54.57
2023-01-26T03:22:28.318Z,50.50
2023-01-26T03:25:14.384Z,53.80
2023-01-26T03:27:43.601Z,52.80
2023-01-26T03:30:12.649Z,52.10
2023-01-26T03:32:42.351Z,52.27
2023-01-26T03:35:14.994Z,51.77
2023-01-26T03:37:43.733Z,52.40
2023-01-26T03:40:30.701Z,51.57
2023-01-26T03:43:16.621Z,57.93
2023-01-26T03:46:02.356Z,51.80
2023-01-26T03:48:49.420Z,54.73
2023-01-26T03:51:35.369Z,48.67
2023-01-26T03:54:21.252Z,45.43
2023-01-26T03:56:49.440Z,48.87
2023-01-26T03:59:17.700Z,53.70
2023-01-26T04:02:04.860Z,55.30
2023-01-26T04:04:52.421Z,52.63
2023-01-26T04:07:38.058Z,52.47
2023-01-26T04:10:06.489Z,49.37
2023-01-26T04:12:34.934Z,52.07
2023-01-26T04:15:20.740Z,49.37
2023-01-26T04:18:06.676Z,50.77
2023-01-26T04:20:54.223Z,47.03
2023-01-26T04:23:22.697Z,49.90
2023-01-26T04:25:50.888Z,47.80
2023-01-26T04:28:19.066Z,48.30
2023-01-26T04:30:47.274Z,49.00
2023-01-26T04:33:15.478Z,48.50
2023-01-26T04:35:44.992Z,51.70
2023-01-26T04:38:13.135Z,46.67
2023-01-26T04:40:41.315Z,50.70
2023-01-26T04:43:09.545Z,51.50
2023-01-26T04:45:37.721Z,54.80
2023-01-26T04:48:06.153Z,51.00
2023-01-26T04:50:34.365Z,48.87
2023-01-26T04:53:03.924Z,52.37
2023-01-26T04:55:32.088Z,50.80
2023-01-26T04:58:00.389Z,58.47
2023-01-26T05:00:28.900Z,52.97
2023-01-26T05:02:57.096Z,54.27
2023-01-26T05:05:25.291Z,50.40
2023-01-26T05:07:53.445Z,53.87
2023-01-26T05:10:23.152Z,53.43
2023-01-26T05:12:51.323Z,52.30
2023-01-26T05:15:19.484Z,52.83
2023-01-26T05:17:47.692Z,57.53
2023-01-26T05:20:16.066Z,55.50
2023-01-26T05:22:44.235Z,61.27
2023-01-26T05:25:12.438Z,65.33
2023-01-26T05:27:41.928Z,69.83
2023-01-26T05:30:13.433Z,78.37
2023-01-26T05:32:42.824Z,90.90
2023-01-26T05:35:11.148Z,96.13
2023-01-26T05:37:39.448Z,109.23
2023-01-26T05:40:08.367Z,111.27
2023-01-26T05:42:36.671Z,118.47
2023-01-26T05:45:07.064Z,123.93
2023-01-26T05:47:35.244Z,132.80
2023-01-26T05:50:03.446Z,150.80
2023-01-26T05:52:31.651Z,152.83
2023-01-26T05:54:59.844Z,168.50
2023-01-26T05:57:28.014Z,210.07
2023-01-26T05:59:56.274Z,224.10
2023-01-26T06:02:27.250Z,239.40
2023-01-26T06:04:55.503Z,251.73
2023-01-26T06:07:23.713Z,284.07
2023-01-26T06:09:51.832Z,289.83
2023-01-26T06:12:20.678Z,325.83
2023-01-26T06:14:48.960Z,318.07
2023-01-26T06:17:17.883Z,321.80
2023-01-26T06:19:47.533Z,322.23
2023-01-26T06:22:16.135Z,349.07
2023-01-26T06:24:44.302Z,362.10
2023-01-26T06:27:14.172Z,381.80
2023-01-26T06:29:42.815Z,419.03
2023-01-26T06:32:12.412Z,455.80
2023-01-26T06:34:40.663Z,488.43
2023-01-26T06:37:10.439Z,494.43
2023-01-26T06:39:38.651Z,530.37
2023-01-26T06:42:07.003Z,612.07
2023-01-26T06:44:35.283Z,621.63
2023-01-26T06:47:03.489Z,618.87
2023-01-26T06:49:31.660Z,654.30
2023-01-26T06:52:01.009Z,634.30
2023-01-26T06:54:30.491Z,696.47
2023-01-26T06:56:58.682Z,696.23
2023-01-26T06:59:26.895Z,707.63
2023-01-26T07:01:55.074Z,721.63
2023-01-26T07:04:27.464Z,700.07
2023-01-26T07:06:55.655Z,679.70
2023-01-26T07:09:23.897Z,693.93
2023-01-26T07:11:53.417Z,711.73
2023-01-26T07:14:21.727Z,747.60
2023-01-26T07:16:49.920Z,696.97
2023-01-26T07:19:18.121Z,739.90
2023-01-26T07:21:46.335Z,717.73
2023-01-26T07:24:14.565Z,675.87
2023-01-26T07:26:42.752Z,632.80
2023-01-26T07:29:12.302Z,668.30
2023-01-26T07:31:41.448Z,594.63
2023-01-26T07:34:10.963Z,558.73
2023-01-26T07:36:39.181Z,498.83
2023-01-26T07:39:08.628Z,466.40
2023-01-26T07:41:36.988Z,409.73
2023-01-26T07:44:08.364Z,408.97
2023-01-26T07:46:38.105Z,367.30
2023-01-26T07:49:06.385Z,349.97
2023-01-26T07:51:34.579Z,328.90
2023-01-26T07:54:02.743Z,292.83
2023-01-26T07:56:30.997Z,268.00
2023-01-26T07:59:01.765Z,255.50
2023-01-26T08:01:31.806Z,220.47
2023-01-26T08:04:01.398Z,185.80
2023-01-26T08:06:29.568Z,168.50
2023-01-26T08:08:57.956Z,162.63
2023-01-26T08:11:26.864Z,147.07
2023-01-26T08:13:55.079Z,135.17
2023-01-26T08:16:23.328Z,125.30
2023-01-26T08:18:51.527Z,116.73
2023-01-26T08:21:21.083Z,125.00
2023-01-26T08:23:50.973Z,125.33
2023-01-26T08:26:19.690Z,134.47
2023-01-26T08:28:48.313Z,124.23
2023-01-26T08:31:19.857Z,124.70
2023-01-26T08:33:48.568Z,123.37
2023-01-26T08:36:17.199Z,124.73
2023-01-26T08:38:46.729Z,133.23
2023-01-26T08:41:15.168Z,131.33
2023-01-26T08:43:43.415Z,142.57
2023-01-26T08:46:11.686Z,160.40
2023-01-26T08:48:39.923Z,164.47
2023-01-26T08:51:09.210Z,146.57
2023-01-26T08:53:38.269Z,140.87
2023-01-26T08:56:09.659Z,132.00
2023-01-26T08:58:38.202Z,135.17
2023-01-26T09:01:06.792Z,135.20
2023-01-26T09:03:35.554Z,127.50
2023-01-26T09:06:04.460Z,140.67
2023-01-26T09:08:32.858Z,138.80
2023-01-26T09:11:01.131Z,131.00
2023-01-26T09:13:34.712Z,129.13
2023-01-26T09:16:05.082Z,146.27
2023-01-26T09:18:33.707Z,196.33
2023-01-26T09:21:05.409Z,217.40
2023-01-26T09:23:34.082Z,203.50
2023-01-26T09:26:02.630Z,194.10
2023-01-26T09:28:32.461Z,209.97
2023-01-26T09:31:04.508Z,218.70
2023-01-26T09:33:32.854Z,224.07
2023-01-26T09:36:04.636Z,238.53
2023-01-26T09:38:32.901Z,245.23
2023-01-26T09:41:05.851Z,261.87
2023-01-26T09:43:38.282Z,297.93
2023-01-26T09:46:11.455Z,313.90
2023-01-26T09:48:44.130Z,280.53
2023-01-26T09:51:13.951Z,251.30
2023-01-26T09:53:46.757Z,252.10
2023-01-26T09:56:17.642Z,217.53
2023-01-26T09:58:49.020Z,192.10
2023-01-26T10:01:20.529Z,208.07
2023-01-26T10:03:51.954Z,200.30
2023-01-26T10:06:23.217Z,182.50
2023-01-26T10:08:51.868Z,181.23
2023-01-26T10:11:24.753Z,168.93
2023-01-26T10:13:57.583Z,153.67
2023-01-26T10:16:25.866Z,135.57
2023-01-26T10:18:56.126Z,109.93
2023-01-26T10:21:25.475Z,75.80
2023-01-26T10:23:54.023Z,65.47
2023-01-26T10:26:23.089Z,55.10
2023-01-26T10:28:52.369Z,38.00
2023-01-26T10:31:23.015Z,35.00
2023-01-26T10:33:53.520Z,26.20
2023-01-26T10:36:22.452Z,23.73
2023-01-26T10:38:51.535Z,19.93
2023-01-26T10:41:24.522Z,19.53
2023-01-26T10:43:54.217Z,15.27
2023-01-26T10:46:31.634Z,15.83
2023-01-26T10:49:00.877Z,15.10
2023-01-26T10:51:30.765Z,16.07
2023-01-26T10:54:18.712Z,18.43
2023-01-26T10:56:47.684Z,18.07
2023-01-26T10:59:24.921Z,13.83
2023-01-26T11:01:55.468Z,19.10
2023-01-26T11:04:24.210Z,14.13
2023-01-26T11:06:52.532Z,18.40
2023-01-26T11:09:22.077Z,10.83
2023-01-26T11:12:01.727Z,16.40
2023-01-26T11:14:30.601Z,22.40
2023-01-26T11:17:01.815Z,17.30
2023-01-26T11:19:39.728Z,13.83
2023-01-26T11:22:08.825Z,17.57
2023-01-26T11:24:44.279Z,13.43
2023-01-26T11:27:29.834Z,16.80
2023-01-26T11:30:14.693Z,19.53
2023-01-26T11:32:48.418Z,15.13
2023-01-26T11:35:30.715Z,13.83
2023-01-26T11:38:02.766Z,15.90
2023-01-26T11:40:33.772Z,14.33
2023-01-26T11:43:24.585Z,20.03
2023-01-26T11:46:07.721Z,13.20
2023-01-26T11:48:41.003Z,19.27
2023-01-26T11:51:13.258Z,15.47
2023-01-26T11:53:52.395Z,20.53
2023-01-26T11:56:26.966Z,14.80
2023-01-26T11:58:57.758Z,16.50
2023-01-26T12:01:28.976Z,17.80
2023-01-26T12:03:58.822Z,15.57
2023-01-26T12:06:30.131Z,11.67
2023-01-26T12:09:01.084Z,15.67
2023-01-26T12:11:32.607Z,11.23
2023-01-26T12:14:08.312Z,15.37
2023-01-26T12:16:48.604Z,14.53
2023-01-26T12:19:23.217Z,17.43
2023-01-26T12:21:52.168Z,10.60
2023-01-26T12:24:48.461Z,18.57
2023-01-26T12:27:16.081Z,18.63
2023-01-26T12:29:48.477Z,17.50
2023-01-26T12:32:17.246Z,17.43
2023-01-26T12:34:47.140Z,18.77
2023-01-26T12:37:33.264Z,14.87
2023-01-26T12:40:07.413Z,14.03
2023-01-26T12:42:43.915Z,20.03
2023-01-26T12:45:16.336Z,20.20
2023-01-26T12:47:48.807Z,16.03
2023-01-26T12:50:24.982Z,18.03
2023-01-26T12:52:56.256Z,13.63
2023-01-26T12:55:27.090Z,15.67
2023-01-26T12:57:58.433Z,17.70
2023-01-26T13:00:29.878Z,17.50
2023-01-26T13:03:00.229Z,24.47
2023-01-26T13:05:31.851Z,15.10
2023-01-26T13:08:00.095Z,19.87
2023-01-26T13:10:45.677Z,11.60
2023-01-26T13:13:30.465Z,18.27
2023-01-26T13:16:31.964Z,21.23
2023-01-26T13:19:00.610Z,18.50
2023-01-26T13:21:30.521Z,18.63
2023-01-26T13:23:58.774Z,18.50
2023-01-26T13:26:43.674Z,21.17
2023-01-26T13:29:31.999Z,23.77
2023-01-26T13:32:02.043Z,15.03
2023-01-26T13:34:32.957Z,15.77
2023-01-26T13:37:07.127Z,16.73
2023-01-26T13:39:36.696Z,19.83
2023-01-26T13:42:05.611Z,11.73
2023-01-26T13:44:38.537Z,16.03
2023-01-26T13:47:10.181Z,14.13
2023-01-26T13:49:39.539Z,16.00
2023-01-26T13:52:17.499Z,16.43
2023-01-26T13:54:46.108Z,18.37
2023-01-26T13:57:21.568Z,15.27
2023-01-26T13:59:50.831Z,13.87
2023-01-26T14:02:26.399Z,13.13
2023-01-26T14:04:55.534Z,13.03
2023-01-26T14:07:27.136Z,15.73
2023-01-26T14:09:56.579Z,15.17
2023-01-26T14:12:26.127Z,15.63
2023-01-26T14:14:55.811Z,16.57
2023-01-26T14:17:26.937Z,12.30
2023-01-26T14:19:55.284Z,14.40
2023-01-26T14:22:23.518Z,17.30
2023-01-26T14:24:54.038Z,14.40
2023-01-26T14:27:30.223Z,15.57
2023-01-26T14:29:58.738Z,9.90
2023-01-26T14:32:29.873Z,12.10
2023-01-26T14:34:58.866Z,10.43
2023-01-26T14:37:27.702Z,10.03
2023-01-26T14:40:20.201Z,7.73
2023-01-26T14:42:48.758Z,9.33
2023-01-26T14:45:17.053Z,12.70
2023-01-26T14:47:45.893Z,13.53
2023-01-26T14:50:16.923Z,14.43
2023-01-26T14:52:46.589Z,11.13
2023-01-26T14:55:19.075Z,18.10
2023-01-26T14:57:47.284Z,14.07
2023-01-26T15:00:22.117Z,18.37
2023-01-26T15:02:50.927Z,15.07
2023-01-26T15:05:20.730Z,13.67
2023-01-26T15:07:50.777Z,13.10
2023-01-26T15:10:42.859Z,13.10
2023-01-26T15:13:21.147Z,17.43
2023-01-26T15:15:51.050Z,9.20
2023-01-26T15:18:20.800Z,13.73
2023-01-26T15:21:00.173Z,13.27
2023-01-26T15:23:30.315Z,9.27
2023-01-26T15:26:05.791Z,7.73
2023-01-26T15:28:35.681Z,10.90
2023-01-26T15:31:04.187Z,6.67
2023-01-26T15:33:39.577Z,12.10
2023-01-26T15:36:08.331Z,13.67
2023-01-26T15:38:36.633Z,8.77
2023-01-26T15:41:04.816Z,9.00
2023-01-26T15:43:33.094Z,10.10
2023-01-26T15:46:02.642Z,15.93
2023-01-26T15:48:31.884Z,7.33
2023-01-26T15:51:00.089Z,13.30
2023-01-26T15:53:28.434Z,12.27
2023-01-26T15:55:58.705Z,6.77
2023-01-26T15:58:28.793Z,12.40
2023-01-26T16:00:57.147Z,7.17
2023-01-26T16:03:26.773Z,10.07
2023-01-26T16:05:55.405Z,8.27
2023-01-26T16:08:24.036Z,6.90
2023-01-26T16:10:52.333Z,5.73
2023-01-26T16:13:20.756Z,8.20
2023-01-26T16:15:50.284Z,9.60
2023-01-26T16:18:19.840Z,7.80
2023-01-26T16:20:50.730Z,9.97
2023-01-26T16:23:20.722Z,9.33
2023-01-26T16:25:49.227Z,10.33
2023-01-26T16:28:17.495Z,7.53
2023-01-26T16:30:46.282Z,9.90
2023-01-26T16:33:15.281Z,9.83
2023-01-26T16:35:43.932Z,10.87
2023-01-26T16:38:13.699Z,15.17
2023-01-26T16:40:42.159Z,11.13
2023-01-26T16:43:16.022Z,12.33
2023-01-26T16:45:44.385Z,7.00
2023-01-26T16:48:14.064Z,12.00
2023-01-26T16:50:42.985Z,17.13
2023-01-26T16:53:18.488Z,8.50
2023-01-26T16:55:46.758Z,9.23
2023-01-26T16:58:14.987Z,9.57
2023-01-26T17:00:43.712Z,7.53
2023-01-26T17:03:13.019Z,10.47
2023-01-26T17:05:41.863Z,10.30
2023-01-26T17:08:10.216Z,7.47
2023-01-26T17:10:52.016Z,12.53
2023-01-26T17:13:23.924Z,12.47
2023-01-26T17:15:52.147Z,13.27
2023-01-26T17:18:20.364Z,17.27
2023-01-26T17:20:48.926Z,14.83
2023-01-26T17:23:17.201Z,16.10
2023-01-26T17:25:46.876Z,11.80
2023-01-26T17:28:15.118Z,11.67
2023-01-26T17:30:43.450Z,14.37
2023-01-26T17:33:11.695Z,13.50
2023-01-26T17:35:39.949Z,11.97
2023-01-26T17:38:08.164Z,15.40
2023-01-26T17:40:36.706Z,16.03
2023-01-26T17:43:06.261Z,18.60
2023-01-26T17:45:34.540Z,14.20
2023-01-26T17:48:02.798Z,17.10
2023-01-26T17:50:31.015Z,12.57
2023-01-26T17:52:59.217Z,11.80
2023-01-26T17:55:27.514Z,10.47
2023-01-26T17:57:55.761Z,12.87
2023-01-26T18:00:25.463Z,12.67
2023-01-26T18:02:53.648Z,10.33
2023-01-26T18:05:21.828Z,10.63
2023-01-26T18:07:50.091Z,13.03
2023-01-26T18:10:18.688Z,11.87
2023-01-26T18:12:47.019Z,11.40
2023-01-26T18:15:15.421Z,16.97
2023-01-26T18:17:45.053Z,13.13
2023-01-26T18:20:15.024Z,10.83
2023-01-26T18:22:43.257Z,10.53
2023-01-26T18:25:11.924Z,12.77
2023-01-26T18:27:40.298Z,10.80
2023-01-26T18:30:09.465Z,10.23
2023-01-26T18:32:39.079Z,7.43
2023-01-26T18:35:10.383Z,9.27
2023-01-26T18:37:38.982Z,7.53
2023-01-26T18:40:08.315Z,5.40
2023-01-26T18:42:36.576Z,7.67
2023-01-26T18:45:05.729Z,9.33
2023-01-26T18:47:34.143Z,7.97
2023-01-26T18:50:02.581Z,12.20
2023-01-26T18:52:32.346Z,9.53
2023-01-26T18:55:00.558Z,10.17
2023-01-26T18:57:28.863Z,10.93
2023-01-26T18:59:57.271Z,12.17
2023-01-26T19:02:25.571Z,11.57
2023-01-26T19:04:55.140Z,8.57
2023-01-26T19:07:23.361Z,7.20
2023-01-26T19:09:52.995Z,7.70
2023-01-26T19:12:21.462Z,7.73
2023-01-26T19:14:49.720Z,9.00
2023-01-26T19:17:18.111Z,8.73
2023-01-26T19:19:47.625Z,6.83
2023-01-26T19:22:16.265Z,10.00
2023-01-26T19:24:44.577Z,11.50
2023-01-26T19:27:14.147Z,10.47
2023-01-26T19:29:42.357Z,10.73
2023-01-26T19:32:10.628Z,12.23
2023-01-26T19:34:38.934Z,14.63
2023-01-26T19:37:07.772Z,12.67
2023-01-26T19:39:36.471Z,11.07
2023-01-26T19:42:04.802Z,11.03
2023-01-26T19:44:34.392Z,11.17
2023-01-26T19:47:02.637Z,12.90
2023-01-26T19:49:31.006Z,14.67
2023-01-26T19:51:59.221Z,17.07
2023-01-26T19:54:27.826Z,13.70
2023-01-26T19:56:56.009Z,15.43
2023-01-26T19:59:24.817Z,15.27
2023-01-26T20:01:55.028Z,13.80
2023-01-26T20:04:23.315Z,11.63
2023-01-26T20:06:51.516Z,9.20
2023-01-26T20:09:19.874Z,16.20
2023-01-26T20:11:50.284Z,12.87
2023-01-26T20:14:18.790Z,13.83
2023-01-26T20:16:47.082Z,13.10
2023-01-26T20:19:16.778Z,15.10
2023-01-26T20:21:45.502Z,17.20
2023-01-26T20:24:15.359Z,10.60
2023-01-26T20:26:44.361Z,10.00
2023-01-26T20:29:13.772Z,9.13
2023-01-26T20:31:42.274Z,11.43
2023-01-26T20:34:10.653Z,18.10
2023-01-26T20:36:40.461Z,18.30
2023-01-26T20:39:09.682Z,10.03
2023-01-26T20:41:37.934Z,11.13
2023-01-26T20:44:07.257Z,15.70
2023-01-26T20:46:36.335Z,12.97
2023-01-26T20:49:05.186Z,13.97
2023-01-26T20:51:35.669Z,10.53
2023-01-26T20:54:06.575Z,20.40
2023-01-26T20:56:35.465Z,14.00
2023-01-26T20:59:04.247Z,14.43
2023-01-26T21:01:33.828Z,11.73
2023-01-26T21:04:03.141Z,14.57
2023-01-26T21:06:31.424Z,15.77
2023-01-26T21:09:00.510Z,20.97
2023-01-26T21:11:31.213Z,22.80
2023-01-26T21:14:00.639Z,17.57
2023-01-26T21:16:29.572Z,17.47
2023-01-26T21:18:57.886Z,11.60
2023-01-26T21:21:26.148Z,14.10
2023-01-26T21:23:54.408Z,18.70
2023-01-26T21:26:28.388Z,14.77
2023-01-26T21:28:59.491Z,17.93
2023-01-26T21:31:28.698Z,17.07
2023-01-26T21:33:57.563Z,15.47
2023-01-26T21:36:26.272Z,11.47
2023-01-26T21:38:56.049Z,15.67
2023-01-26T21:41:43.092Z,22.53
2023-01-26T21:44:13.392Z,16.70
2023-01-26T21:46:41.789Z,15.43
2023-01-26T21:49:11.113Z,18.13
2023-01-26T21:51:56.944Z,19.13
2023-01-26T21:54:25.179Z,17.20
2023-01-26T21:56:53.628Z,17.37
2023-01-26T21:59:22.312Z,19.90
2023-01-26T22:01:51.426Z,15.83
2023-01-26T22:04:20.713Z,20.67
2023-01-26T22:06:54.376Z,15.07
2023-01-26T22:09:23.847Z,11.80
2023-01-26T22:11:52.816Z,18.10
2023-01-26T22:14:21.983Z,13.57
2023-01-26T22:16:53.250Z,19.50
2023-01-26T22:19:23.120Z,16.40
2023-01-26T22:21:52.596Z,18.03
2023-01-26T22:24:22.049Z,16.93
2023-01-26T22:26:50.431Z,20.83
2023-01-26T22:29:18.619Z,21.00
2023-01-26T22:31:47.102Z,14.87
2023-01-26T22:34:16.773Z,12.57
2023-01-26T22:36:46.027Z,13.97
2023-01-26T22:39:14.302Z,20.50
2023-01-26T22:41:42.484Z,17.80
2023-01-26T22:44:11.063Z,21.23
2023-01-26T22:46:39.450Z,13.53
2023-01-26T22:49:08.406Z,25.30
2023-01-26T22:51:37.984Z,22.97
2023-01-26T22:54:06.674Z,19.73
2023-01-26T22:56:35.160Z,18.33
2023-01-26T22:59:03.815Z,19.47
2023-01-26T23:01:33.222Z,15.50
2023-01-26T23:04:02.097Z,22.40
2023-01-26T23:06:30.385Z,22.57
2023-01-26T23:09:01.104Z,17.47
2023-01-26T23:11:30.200Z,20.17
2023-01-26T23:13:59.118Z,27.77
2023-01-26T23:16:27.479Z,18.17
2023-01-26T23:18:56.690Z,21.37
2023-01-26T23:21:25.387Z,15.53
2023-01-26T23:23:53.616Z,18.23
2023-01-26T23:26:23.312Z,17.03
2023-01-26T23:28:51.555Z,24.60
2023-01-26T23:31:20.288Z,23.60
2023-01-26T23:33:48.875Z,19.07
2023-01-26T23:36:17.393Z,24.37
2023-01-26T23:38:46.331Z,23.40
2023-01-26T23:41:14.611Z,21.30
2023-01-26T23:43:44.208Z,25.67
2023-01-26T23:46:13.425Z,22.20
2023-01-26T23:48:41.721Z,18.23
2023-01-26T23:51:11.252Z,16.60
2023-01-26T23:53:39.767Z,19.80
2023-01-26T23:56:09.170Z,22.17
2023-01-26T23:58:37.836Z,17.37
